sensor_id;sensor_type;location;lat;lon;timestamp;P1;durP1;ratioP1;P2;durP2;ratioP2
73102;SDS011;61294;65.988;29.172;2023-06-19T00:02:09;5.55;;;4.57;;
73102;SDS011;61294;65.988;29.172;2023-06-19T00:04:35;5.97;;;4.75;;
73102;SDS011;61294;65.988;29.172;2023-06-19T00:07:00;5.38;;;4.88;;
73102;SDS011;61294;65.988;29.172;2023-06-19T00:09:26;4.88;;;4.43;;
73102;SDS011;61294;65.988;29.172;2023-06-19T00:11:52;5.95;;;5.15;;
73102;SDS011;61294;65.988;29.172;2023-06-19T00:14:18;8.10;;;4.75;;
73102;SDS011;61294;65.988;29.172;2023-06-19T00:16:44;9.18;;;5.15;;
73102;SDS011;61294;65.988;29.172;2023-06-19T00:19:10;5.53;;;5.03;;
73102;SDS011;61294;65.988;29.172;2023-06-19T00:21:37;6.93;;;4.78;;
73102;SDS011;61294;65.988;29.172;2023-06-19T00:24:04;8.27;;;5.13;;
73102;SDS011;61294;65.988;29.172;2023-06-19T00:26:30;7.97;;;5.43;;
73102;SDS011;61294;65.988;29.172;2023-06-19T00:28:57;7.00;;;5.60;;
73102;SDS011;61294;65.988;29.172;2023-06-19T00:31:22;6.30;;;5.70;;
73102;SDS011;61294;65.988;29.172;2023-06-19T00:33:49;7.53;;;5.68;;
73102;SDS011;61294;65.988;29.172;2023-06-19T00:36:16;9.90;;;5.50;;
73102;SDS011;61294;65.988;29.172;2023-06-19T00:38:46;8.23;;;5.70;;
73102;SDS011;61294;65.988;29.172;2023-06-19T00:41:13;5.55;;;5.03;;
73102;SDS011;61294;65.988;29.172;2023-06-19T00:43:41;8.05;;;5.97;;
73102;SDS011;61294;65.988;29.172;2023-06-19T00:46:07;6.70;;;6.07;;
73102;SDS011;61294;65.988;29.172;2023-06-19T00:48:33;7.00;;;6.20;;
73102;SDS011;61294;65.988;29.172;2023-06-19T00:50:59;8.45;;;6.45;;
73102;SDS011;61294;65.988;29.172;2023-06-19T00:53:26;7.63;;;5.97;;
73102;SDS011;61294;65.988;29.172;2023-06-19T00:55:52;6.45;;;5.85;;
73102;SDS011;61294;65.988;29.172;2023-06-19T00:58:20;7.53;;;5.18;;
73102;SDS011;61294;65.988;29.172;2023-06-19T01:00:47;6.90;;;5.80;;
73102;SDS011;61294;65.988;29.172;2023-06-19T01:03:13;6.78;;;5.55;;
73102;SDS011;61294;65.988;29.172;2023-06-19T01:05:39;6.20;;;5.60;;
73102;SDS011;61294;65.988;29.172;2023-06-19T01:08:10;6.60;;;5.90;;
73102;SDS011;61294;65.988;29.172;2023-06-19T01:10:49;6.53;;;5.63;;
73102;SDS011;61294;65.988;29.172;2023-06-19T01:16:03;7.03;;;6.00;;
73102;SDS011;61294;65.988;29.172;2023-06-19T01:18:30;6.95;;;5.93;;
73102;SDS011;61294;65.988;29.172;2023-06-19T01:21:07;6.43;;;5.82;;
73102;SDS011;61294;65.988;29.172;2023-06-19T01:23:41;11.20;;;8.77;;
73102;SDS011;61294;65.988;29.172;2023-06-19T01:26:07;7.70;;;6.45;;
73102;SDS011;61294;65.988;29.172;2023-06-19T01:28:37;6.32;;;5.82;;
73102;SDS011;61294;65.988;29.172;2023-06-19T01:31:12;7.03;;;5.53;;
73102;SDS011;61294;65.988;29.172;2023-06-19T01:33:42;8.15;;;5.70;;
73102;SDS011;61294;65.988;29.172;2023-06-19T01:36:11;6.18;;;5.57;;
73102;SDS011;61294;65.988;29.172;2023-06-19T01:38:39;6.28;;;5.68;;
73102;SDS011;61294;65.988;29.172;2023-06-19T01:41:08;7.88;;;7.13;;
73102;SDS011;61294;65.988;29.172;2023-06-19T01:43:35;10.02;;;7.95;;
73102;SDS011;61294;65.988;29.172;2023-06-19T01:46:02;9.23;;;8.25;;
73102;SDS011;61294;65.988;29.172;2023-06-19T01:48:28;9.10;;;8.20;;
73102;SDS011;61294;65.988;29.172;2023-06-19T01:50:54;8.98;;;8.07;;
73102;SDS011;61294;65.988;29.172;2023-06-19T01:53:20;9.65;;;8.70;;
73102;SDS011;61294;65.988;29.172;2023-06-19T01:55:45;10.05;;;8.98;;
73102;SDS011;61294;65.988;29.172;2023-06-19T01:58:11;10.32;;;9.25;;
73102;SDS011;61294;65.988;29.172;2023-06-19T02:00:37;10.27;;;8.70;;
73102;SDS011;61294;65.988;29.172;2023-06-19T02:03:03;9.52;;;8.57;;
73102;SDS011;61294;65.988;29.172;2023-06-19T02:05:32;9.65;;;8.75;;
73102;SDS011;61294;65.988;29.172;2023-06-19T02:07:59;9.82;;;8.93;;
73102;SDS011;61294;65.988;29.172;2023-06-19T02:10:25;10.50;;;9.48;;
73102;SDS011;61294;65.988;29.172;2023-06-19T02:12:50;12.45;;;9.35;;
73102;SDS011;61294;65.988;29.172;2023-06-19T02:15:16;11.13;;;10.00;;
73102;SDS011;61294;65.988;29.172;2023-06-19T02:17:42;11.90;;;10.70;;
73102;SDS011;61294;65.988;29.172;2023-06-19T02:20:08;11.55;;;10.35;;
73102;SDS011;61294;65.988;29.172;2023-06-19T02:22:39;11.32;;;10.13;;
73102;SDS011;61294;65.988;29.172;2023-06-19T02:25:06;11.05;;;9.95;;
73102;SDS011;61294;65.988;29.172;2023-06-19T02:27:32;11.15;;;9.95;;
73102;SDS011;61294;65.988;29.172;2023-06-19T02:29:58;10.93;;;9.60;;
73102;SDS011;61294;65.988;29.172;2023-06-19T02:32:24;10.52;;;9.43;;
73102;SDS011;61294;65.988;29.172;2023-06-19T02:34:50;9.68;;;8.68;;
73102;SDS011;61294;65.988;29.172;2023-06-19T02:37:16;9.70;;;8.80;;
73102;SDS011;61294;65.988;29.172;2023-06-19T02:39:41;9.63;;;8.73;;
73102;SDS011;61294;65.988;29.172;2023-06-19T02:42:07;10.02;;;9.02;;
73102;SDS011;61294;65.988;29.172;2023-06-19T02:44:33;9.52;;;8.63;;
73102;SDS011;61294;65.988;29.172;2023-06-19T02:46:59;9.70;;;8.38;;
73102;SDS011;61294;65.988;29.172;2023-06-19T02:49:25;9.13;;;8.23;;
73102;SDS011;61294;65.988;29.172;2023-06-19T02:51:51;8.73;;;7.93;;
73102;SDS011;61294;65.988;29.172;2023-06-19T02:54:17;36.55;;;32.95;;
73102;SDS011;61294;65.988;29.172;2023-06-19T02:56:42;8.60;;;7.70;;
73102;SDS011;61294;65.988;29.172;2023-06-19T02:59:08;8.13;;;7.32;;
73102;SDS011;61294;65.988;29.172;2023-06-19T03:01:34;8.52;;;7.47;;
73102;SDS011;61294;65.988;29.172;2023-06-19T03:04:00;7.53;;;6.82;;
73102;SDS011;61294;65.988;29.172;2023-06-19T03:06:26;7.65;;;6.95;;
73102;SDS011;61294;65.988;29.172;2023-06-19T03:08:51;7.80;;;6.68;;
73102;SDS011;61294;65.988;29.172;2023-06-19T03:11:17;9.40;;;6.72;;
73102;SDS011;61294;65.988;29.172;2023-06-19T03:13:47;9.40;;;6.68;;
73102;SDS011;61294;65.988;29.172;2023-06-19T03:16:17;7.32;;;6.63;;
73102;SDS011;61294;65.988;29.172;2023-06-19T03:18:43;7.13;;;6.20;;
73102;SDS011;61294;65.988;29.172;2023-06-19T03:21:12;7.65;;;6.80;;
73102;SDS011;61294;65.988;29.172;2023-06-19T03:23:39;8.38;;;7.53;;
73102;SDS011;61294;65.988;29.172;2023-06-19T03:26:09;6.35;;;5.75;;
73102;SDS011;61294;65.988;29.172;2023-06-19T03:28:37;7.93;;;7.00;;
73102;SDS011;61294;65.988;29.172;2023-06-19T03:31:03;9.93;;;6.60;;
73102;SDS011;61294;65.988;29.172;2023-06-19T03:33:29;7.30;;;6.60;;
73102;SDS011;61294;65.988;29.172;2023-06-19T03:35:55;10.30;;;6.85;;
73102;SDS011;61294;65.988;29.172;2023-06-19T03:38:21;10.82;;;5.85;;
73102;SDS011;61294;65.988;29.172;2023-06-19T03:40:46;7.00;;;5.50;;
73102;SDS011;61294;65.988;29.172;2023-06-19T03:43:12;8.77;;;6.13;;
73102;SDS011;61294;65.988;29.172;2023-06-19T03:45:38;7.43;;;5.80;;
73102;SDS011;61294;65.988;29.172;2023-06-19T03:48:04;6.13;;;5.20;;
73102;SDS011;61294;65.988;29.172;2023-06-19T03:50:29;6.38;;;4.93;;
73102;SDS011;61294;65.988;29.172;2023-06-19T03:52:55;6.93;;;5.47;;
73102;SDS011;61294;65.988;29.172;2023-06-19T03:55:21;5.40;;;4.90;;
73102;SDS011;61294;65.988;29.172;2023-06-19T03:57:47;7.70;;;5.35;;
73102;SDS011;61294;65.988;29.172;2023-06-19T04:00:13;6.57;;;4.55;;
73102;SDS011;61294;65.988;29.172;2023-06-19T04:02:40;7.03;;;4.82;;
73102;SDS011;61294;65.988;29.172;2023-06-19T04:05:06;5.18;;;4.68;;
73102;SDS011;61294;65.988;29.172;2023-06-19T04:07:32;6.38;;;5.18;;
73102;SDS011;61294;65.988;29.172;2023-06-19T04:09:58;9.43;;;4.90;;
73102;SDS011;61294;65.988;29.172;2023-06-19T04:12:24;4.93;;;4.43;;
73102;SDS011;61294;65.988;29.172;2023-06-19T04:14:50;10.75;;;5.68;;
73102;SDS011;61294;65.988;29.172;2023-06-19T04:17:17;6.53;;;5.03;;
73102;SDS011;61294;65.988;29.172;2023-06-19T04:19:43;5.63;;;4.72;;
73102;SDS011;61294;65.988;29.172;2023-06-19T04:22:09;9.68;;;4.88;;
73102;SDS011;61294;65.988;29.172;2023-06-19T04:24:35;7.20;;;4.60;;
73102;SDS011;61294;65.988;29.172;2023-06-19T04:27:01;6.65;;;4.47;;
73102;SDS011;61294;65.988;29.172;2023-06-19T04:29:27;5.07;;;4.55;;
73102;SDS011;61294;65.988;29.172;2023-06-19T04:31:58;6.43;;;4.15;;
73102;SDS011;61294;65.988;29.172;2023-06-19T04:34:24;4.90;;;4.30;;
73102;SDS011;61294;65.988;29.172;2023-06-19T04:36:50;4.93;;;4.40;;
73102;SDS011;61294;65.988;29.172;2023-06-19T04:39:17;4.72;;;4.32;;
73102;SDS011;61294;65.988;29.172;2023-06-19T04:41:43;5.15;;;4.65;;
73102;SDS011;61294;65.988;29.172;2023-06-19T04:44:09;5.88;;;4.28;;
73102;SDS011;61294;65.988;29.172;2023-06-19T04:46:38;5.07;;;3.95;;
73102;SDS011;61294;65.988;29.172;2023-06-19T04:49:05;4.15;;;3.75;;
73102;SDS011;61294;65.988;29.172;2023-06-19T04:51:31;3.80;;;3.50;;
73102;SDS011;61294;65.988;29.172;2023-06-19T04:54:00;4.20;;;3.80;;
73102;SDS011;61294;65.988;29.172;2023-06-19T04:56:27;5.75;;;4.13;;
73102;SDS011;61294;65.988;29.172;2023-06-19T04:58:53;4.38;;;3.95;;
73102;SDS011;61294;65.988;29.172;2023-06-19T05:01:24;4.20;;;3.58;;
73102;SDS011;61294;65.988;29.172;2023-06-19T05:03:53;3.90;;;3.33;;
73102;SDS011;61294;65.988;29.172;2023-06-19T05:06:23;4.90;;;2.92;;
73102;SDS011;61294;65.988;29.172;2023-06-19T05:08:49;4.75;;;2.92;;
73102;SDS011;61294;65.988;29.172;2023-06-19T05:11:15;3.42;;;3.10;;
73102;SDS011;61294;65.988;29.172;2023-06-19T05:13:41;2.88;;;2.65;;
73102;SDS011;61294;65.988;29.172;2023-06-19T05:16:07;4.82;;;3.20;;
73102;SDS011;61294;65.988;29.172;2023-06-19T05:18:33;3.53;;;3.00;;
73102;SDS011;61294;65.988;29.172;2023-06-19T05:20:59;3.53;;;3.15;;
73102;SDS011;61294;65.988;29.172;2023-06-19T05:23:24;4.07;;;3.38;;
73102;SDS011;61294;65.988;29.172;2023-06-19T05:25:50;6.82;;;3.30;;
73102;SDS011;61294;65.988;29.172;2023-06-19T05:28:16;4.80;;;3.65;;
73102;SDS011;61294;65.988;29.172;2023-06-19T05:30:42;3.42;;;2.85;;
73102;SDS011;61294;65.988;29.172;2023-06-19T05:33:07;3.88;;;3.47;;
73102;SDS011;61294;65.988;29.172;2023-06-19T05:35:34;3.72;;;3.22;;
73102;SDS011;61294;65.988;29.172;2023-06-19T05:38:00;2.95;;;2.67;;
73102;SDS011;61294;65.988;29.172;2023-06-19T05:40:26;3.95;;;3.30;;
73102;SDS011;61294;65.988;29.172;2023-06-19T05:42:51;4.22;;;3.25;;
73102;SDS011;61294;65.988;29.172;2023-06-19T05:45:17;3.53;;;3.00;;
73102;SDS011;61294;65.988;29.172;2023-06-19T05:47:43;4.07;;;3.00;;
73102;SDS011;61294;65.988;29.172;2023-06-19T05:50:09;3.30;;;3.00;;
73102;SDS011;61294;65.988;29.172;2023-06-19T05:52:35;3.92;;;3.40;;
73102;SDS011;61294;65.988;29.172;2023-06-19T05:55:01;3.28;;;2.97;;
73102;SDS011;61294;65.988;29.172;2023-06-19T05:57:26;5.05;;;3.03;;
73102;SDS011;61294;65.988;29.172;2023-06-19T05:59:52;3.50;;;2.70;;
73102;SDS011;61294;65.988;29.172;2023-06-19T06:02:19;2.88;;;2.55;;
73102;SDS011;61294;65.988;29.172;2023-06-19T06:04:45;3.42;;;3.03;;
73102;SDS011;61294;65.988;29.172;2023-06-19T06:07:11;3.60;;;3.00;;
73102;SDS011;61294;65.988;29.172;2023-06-19T06:09:37;8.68;;;3.35;;
73102;SDS011;61294;65.988;29.172;2023-06-19T06:12:03;4.13;;;3.10;;
73102;SDS011;61294;65.988;29.172;2023-06-19T06:14:30;3.70;;;2.63;;
73102;SDS011;61294;65.988;29.172;2023-06-19T06:16:55;4.38;;;3.05;;
73102;SDS011;61294;65.988;29.172;2023-06-19T06:19:21;2.90;;;2.60;;
73102;SDS011;61294;65.988;29.172;2023-06-19T06:21:51;2.63;;;2.42;;
73102;SDS011;61294;65.988;29.172;2023-06-19T06:24:16;3.05;;;2.72;;
73102;SDS011;61294;65.988;29.172;2023-06-19T06:26:42;5.25;;;2.88;;
73102;SDS011;61294;65.988;29.172;2023-06-19T06:29:08;2.63;;;2.42;;
73102;SDS011;61294;65.988;29.172;2023-06-19T06:31:37;2.85;;;2.60;;
73102;SDS011;61294;65.988;29.172;2023-06-19T06:34:03;3.38;;;2.92;;
73102;SDS011;61294;65.988;29.172;2023-06-19T06:36:29;3.63;;;2.78;;
73102;SDS011;61294;65.988;29.172;2023-06-19T06:38:55;7.25;;;2.88;;
73102;SDS011;61294;65.988;29.172;2023-06-19T06:41:21;3.17;;;2.60;;
73102;SDS011;61294;65.988;29.172;2023-06-19T06:43:46;3.38;;;2.65;;
73102;SDS011;61294;65.988;29.172;2023-06-19T06:46:12;4.82;;;3.03;;
73102;SDS011;61294;65.988;29.172;2023-06-19T06:48:39;2.88;;;2.58;;
73102;SDS011;61294;65.988;29.172;2023-06-19T06:51:05;3.10;;;2.65;;
73102;SDS011;61294;65.988;29.172;2023-06-19T06:53:31;4.75;;;2.90;;
73102;SDS011;61294;65.988;29.172;2023-06-19T06:55:59;4.55;;;3.33;;
73102;SDS011;61294;65.988;29.172;2023-06-19T06:58:25;3.03;;;2.70;;
73102;SDS011;61294;65.988;29.172;2023-06-19T07:00:52;3.28;;;2.50;;
73102;SDS011;61294;65.988;29.172;2023-06-19T07:03:18;2.50;;;2.30;;
73102;SDS011;61294;65.988;29.172;2023-06-19T07:05:44;2.88;;;2.28;;
73102;SDS011;61294;65.988;29.172;2023-06-19T07:08:11;3.15;;;2.53;;
73102;SDS011;61294;65.988;29.172;2023-06-19T07:10:37;2.63;;;2.20;;
73102;SDS011;61294;65.988;29.172;2023-06-19T07:13:02;2.80;;;2.42;;
73102;SDS011;61294;65.988;29.172;2023-06-19T07:15:28;2.92;;;2.08;;
73102;SDS011;61294;65.988;29.172;2023-06-19T07:17:55;4.00;;;2.08;;
73102;SDS011;61294;65.988;29.172;2023-06-19T07:20:21;3.17;;;2.20;;
73102;SDS011;61294;65.988;29.172;2023-06-19T07:22:50;2.78;;;2.20;;
73102;SDS011;61294;65.988;29.172;2023-06-19T07:25:16;4.53;;;2.22;;
73102;SDS011;61294;65.988;29.172;2023-06-19T07:27:42;3.45;;;2.97;;
73102;SDS011;61294;65.988;29.172;2023-06-19T07:30:09;4.85;;;3.92;;
73102;SDS011;61294;65.988;29.172;2023-06-19T07:32:36;2.80;;;2.13;;
73102;SDS011;61294;65.988;29.172;2023-06-19T07:35:02;2.45;;;1.98;;
73102;SDS011;61294;65.988;29.172;2023-06-19T07:37:29;2.25;;;1.70;;
73102;SDS011;61294;65.988;29.172;2023-06-19T07:39:54;2.22;;;2.03;;
73102;SDS011;61294;65.988;29.172;2023-06-19T07:42:21;2.60;;;2.33;;
73102;SDS011;61294;65.988;29.172;2023-06-19T07:44:47;3.55;;;2.20;;
73102;SDS011;61294;65.988;29.172;2023-06-19T07:47:13;4.82;;;2.10;;
73102;SDS011;61294;65.988;29.172;2023-06-19T07:49:41;2.45;;;1.90;;
73102;SDS011;61294;65.988;29.172;2023-06-19T07:52:09;2.92;;;2.17;;
73102;SDS011;61294;65.988;29.172;2023-06-19T07:54:35;3.13;;;1.90;;
73102;SDS011;61294;65.988;29.172;2023-06-19T07:57:01;3.05;;;2.03;;
73102;SDS011;61294;65.988;29.172;2023-06-19T07:59:27;2.13;;;1.80;;
73102;SDS011;61294;65.988;29.172;2023-06-19T08:01:53;2.30;;;1.80;;
73102;SDS011;61294;65.988;29.172;2023-06-19T08:04:18;1.90;;;1.70;;
73102;SDS011;61294;65.988;29.172;2023-06-19T08:06:44;4.68;;;1.92;;
73102;SDS011;61294;65.988;29.172;2023-06-19T08:09:10;3.10;;;2.45;;
73102;SDS011;61294;65.988;29.172;2023-06-19T08:11:36;5.00;;;2.13;;
73102;SDS011;61294;65.988;29.172;2023-06-19T08:14:02;2.05;;;1.85;;
73102;SDS011;61294;65.988;29.172;2023-06-19T08:16:28;2.00;;;1.80;;
73102;SDS011;61294;65.988;29.172;2023-06-19T08:18:54;2.33;;;1.60;;
73102;SDS011;61294;65.988;29.172;2023-06-19T08:21:20;2.42;;;1.80;;
73102;SDS011;61294;65.988;29.172;2023-06-19T08:23:46;3.40;;;2.03;;
73102;SDS011;61294;65.988;29.172;2023-06-19T08:26:13;2.50;;;1.73;;
73102;SDS011;61294;65.988;29.172;2023-06-19T08:28:39;2.65;;;1.95;;
73102;SDS011;61294;65.988;29.172;2023-06-19T08:31:06;2.05;;;1.70;;
73102;SDS011;61294;65.988;29.172;2023-06-19T08:33:33;2.00;;;1.88;;
73102;SDS011;61294;65.988;29.172;2023-06-19T08:36:00;1.88;;;1.75;;
73102;SDS011;61294;65.988;29.172;2023-06-19T08:38:26;2.08;;;1.80;;
73102;SDS011;61294;65.988;29.172;2023-06-19T08:40:52;4.25;;;2.13;;
73102;SDS011;61294;65.988;29.172;2023-06-19T08:43:18;2.22;;;1.95;;
73102;SDS011;61294;65.988;29.172;2023-06-19T08:45:52;2.30;;;2.00;;
73102;SDS011;61294;65.988;29.172;2023-06-19T08:48:25;2.10;;;1.75;;
73102;SDS011;61294;65.988;29.172;2023-06-19T08:50:51;4.15;;;2.08;;
73102;SDS011;61294;65.988;29.172;2023-06-19T08:53:17;4.40;;;2.03;;
73102;SDS011;61294;65.988;29.172;2023-06-19T08:55:42;1.70;;;1.60;;
73102;SDS011;61294;65.988;29.172;2023-06-19T08:58:09;2.13;;;1.75;;
73102;SDS011;61294;65.988;29.172;2023-06-19T09:00:36;1.75;;;1.65;;
73102;SDS011;61294;65.988;29.172;2023-06-19T09:03:02;2.40;;;1.70;;
73102;SDS011;61294;65.988;29.172;2023-06-19T09:05:29;2.85;;;1.60;;
73102;SDS011;61294;65.988;29.172;2023-06-19T09:07:58;1.85;;;1.70;;
73102;SDS011;61294;65.988;29.172;2023-06-19T09:10:27;2.20;;;1.60;;
73102;SDS011;61294;65.988;29.172;2023-06-19T09:12:58;2.55;;;1.80;;
73102;SDS011;61294;65.988;29.172;2023-06-19T09:15:30;2.08;;;1.90;;
73102;SDS011;61294;65.988;29.172;2023-06-19T09:20:30;4.45;;;2.97;;
73102;SDS011;61294;65.988;29.172;2023-06-19T09:22:56;2.45;;;2.00;;
73102;SDS011;61294;65.988;29.172;2023-06-19T09:25:23;2.15;;;1.67;;
73102;SDS011;61294;65.988;29.172;2023-06-19T09:27:50;3.20;;;1.80;;
73102;SDS011;61294;65.988;29.172;2023-06-19T09:30:16;4.15;;;1.88;;
73102;SDS011;61294;65.988;29.172;2023-06-19T09:32:41;2.72;;;1.70;;
73102;SDS011;61294;65.988;29.172;2023-06-19T09:35:07;2.53;;;1.80;;
73102;SDS011;61294;65.988;29.172;2023-06-19T09:37:33;8.90;;;1.98;;
73102;SDS011;61294;65.988;29.172;2023-06-19T09:40:00;1.70;;;1.60;;
73102;SDS011;61294;65.988;29.172;2023-06-19T09:42:46;1.92;;;1.63;;
73102;SDS011;61294;65.988;29.172;2023-06-19T09:45:18;1.90;;;1.70;;
73102;SDS011;61294;65.988;29.172;2023-06-19T09:47:48;2.00;;;1.73;;
73102;SDS011;61294;65.988;29.172;2023-06-19T09:50:18;2.08;;;1.60;;
73102;SDS011;61294;65.988;29.172;2023-06-19T09:52:52;1.92;;;1.75;;
73102;SDS011;61294;65.988;29.172;2023-06-19T09:55:18;1.85;;;1.67;;
73102;SDS011;61294;65.988;29.172;2023-06-19T09:57:44;2.45;;;1.67;;
73102;SDS011;61294;65.988;29.172;2023-06-19T10:00:11;3.47;;;1.58;;
73102;SDS011;61294;65.988;29.172;2023-06-19T10:02:47;2.80;;;1.70;;
73102;SDS011;61294;65.988;29.172;2023-06-19T10:05:14;2.20;;;1.70;;
73102;SDS011;61294;65.988;29.172;2023-06-19T10:07:44;1.98;;;1.73;;
73102;SDS011;61294;65.988;29.172;2023-06-19T10:10:22;2.10;;;1.80;;
73102;SDS011;61294;65.988;29.172;2023-06-19T10:12:50;1.80;;;1.60;;
73102;SDS011;61294;65.988;29.172;2023-06-19T10:15:20;4.07;;;1.80;;
73102;SDS011;61294;65.988;29.172;2023-06-19T10:17:48;1.65;;;1.55;;
73102;SDS011;61294;65.988;29.172;2023-06-19T10:23:03;1.70;;;1.60;;
73102;SDS011;61294;65.988;29.172;2023-06-19T10:25:42;2.33;;;1.50;;
73102;SDS011;61294;65.988;29.172;2023-06-19T10:28:16;1.80;;;1.60;;
73102;SDS011;61294;65.988;29.172;2023-06-19T10:31:07;1.67;;;1.52;;
73102;SDS011;61294;65.988;29.172;2023-06-19T10:33:34;2.03;;;1.80;;
73102;SDS011;61294;65.988;29.172;2023-06-19T10:36:13;1.70;;;1.60;;
73102;SDS011;61294;65.988;29.172;2023-06-19T10:38:41;2.08;;;1.50;;
73102;SDS011;61294;65.988;29.172;2023-06-19T10:41:19;2.20;;;1.70;;
73102;SDS011;61294;65.988;29.172;2023-06-19T10:44:02;4.95;;;1.77;;
73102;SDS011;61294;65.988;29.172;2023-06-19T10:46:33;1.52;;;1.42;;
73102;SDS011;61294;65.988;29.172;2023-06-19T10:49:03;4.30;;;2.00;;
73102;SDS011;61294;65.988;29.172;2023-06-19T10:51:31;3.05;;;1.60;;
73102;SDS011;61294;65.988;29.172;2023-06-19T10:53:59;1.73;;;1.63;;
73102;SDS011;61294;65.988;29.172;2023-06-19T10:56:25;2.20;;;1.50;;
73102;SDS011;61294;65.988;29.172;2023-06-19T10:59:02;1.60;;;1.50;;
73102;SDS011;61294;65.988;29.172;2023-06-19T11:01:45;1.55;;;1.45;;
73102;SDS011;61294;65.988;29.172;2023-06-19T11:04:13;3.50;;;1.58;;
73102;SDS011;61294;65.988;29.172;2023-06-19T11:06:40;1.65;;;1.55;;
73102;SDS011;61294;65.988;29.172;2023-06-19T11:09:09;2.10;;;1.90;;
73102;SDS011;61294;65.988;29.172;2023-06-19T11:14:01;1.85;;;1.75;;
73102;SDS011;61294;65.988;29.172;2023-06-19T11:16:27;1.70;;;1.60;;
73102;SDS011;61294;65.988;29.172;2023-06-19T11:18:56;1.70;;;1.20;;
73102;SDS011;61294;65.988;29.172;2023-06-19T11:21:31;2.28;;;1.60;;
73102;SDS011;61294;65.988;29.172;2023-06-19T11:24:03;1.95;;;1.50;;
73102;SDS011;61294;65.988;29.172;2023-06-19T11:26:34;2.30;;;1.50;;
73102;SDS011;61294;65.988;29.172;2023-06-19T11:29:12;1.67;;;1.58;;
73102;SDS011;61294;65.988;29.172;2023-06-19T11:31:42;1.95;;;1.48;;
73102;SDS011;61294;65.988;29.172;2023-06-19T11:34:08;3.92;;;1.80;;
73102;SDS011;61294;65.988;29.172;2023-06-19T11:36:36;2.50;;;1.70;;
73102;SDS011;61294;65.988;29.172;2023-06-19T11:39:02;4.45;;;1.77;;
73102;SDS011;61294;65.988;29.172;2023-06-19T11:41:30;1.60;;;1.50;;
73102;SDS011;61294;65.988;29.172;2023-06-19T11:44:03;1.40;;;1.30;;
73102;SDS011;61294;65.988;29.172;2023-06-19T11:46:31;1.60;;;1.50;;
73102;SDS011;61294;65.988;29.172;2023-06-19T11:49:07;1.70;;;1.60;;
73102;SDS011;61294;65.988;29.172;2023-06-19T11:51:43;1.77;;;1.55;;
73102;SDS011;61294;65.988;29.172;2023-06-19T11:54:09;1.92;;;1.70;;
73102;SDS011;61294;65.988;29.172;2023-06-19T11:56:36;2.97;;;1.50;;
73102;SDS011;61294;65.988;29.172;2023-06-19T11:59:03;1.70;;;1.60;;
73102;SDS011;61294;65.988;29.172;2023-06-19T12:01:30;5.22;;;1.60;;
73102;SDS011;61294;65.988;29.172;2023-06-19T12:03:57;2.53;;;1.50;;
73102;SDS011;61294;65.988;29.172;2023-06-19T12:06:24;1.60;;;1.50;;
73102;SDS011;61294;65.988;29.172;2023-06-19T12:08:50;2.60;;;1.50;;
73102;SDS011;61294;65.988;29.172;2023-06-19T12:11:15;2.22;;;1.30;;
73102;SDS011;61294;65.988;29.172;2023-06-19T12:13:41;1.92;;;1.50;;
73102;SDS011;61294;65.988;29.172;2023-06-19T12:16:10;1.60;;;1.45;;
73102;SDS011;61294;65.988;29.172;2023-06-19T12:18:36;1.58;;;1.48;;
73102;SDS011;61294;65.988;29.172;2023-06-19T12:21:03;2.00;;;1.70;;
73102;SDS011;61294;65.988;29.172;2023-06-19T12:23:29;1.70;;;1.60;;
73102;SDS011;61294;65.988;29.172;2023-06-19T12:25:55;1.60;;;1.40;;
73102;SDS011;61294;65.988;29.172;2023-06-19T12:28:22;1.40;;;1.30;;
73102;SDS011;61294;65.988;29.172;2023-06-19T12:30:48;1.33;;;1.23;;
73102;SDS011;61294;65.988;29.172;2023-06-19T12:33:17;1.67;;;1.40;;
73102;SDS011;61294;65.988;29.172;2023-06-19T12:35:44;1.35;;;1.25;;
73102;SDS011;61294;65.988;29.172;2023-06-19T12:38:10;2.20;;;1.52;;
73102;SDS011;61294;65.988;29.172;2023-06-19T12:40:36;1.50;;;1.30;;
73102;SDS011;61294;65.988;29.172;2023-06-19T12:43:02;1.75;;;1.30;;
73102;SDS011;61294;65.988;29.172;2023-06-19T12:45:29;1.40;;;1.30;;
73102;SDS011;61294;65.988;29.172;2023-06-19T12:47:55;1.38;;;1.27;;
73102;SDS011;61294;65.988;29.172;2023-06-19T12:50:21;1.50;;;1.40;;
73102;SDS011;61294;65.988;29.172;2023-06-19T12:52:47;2.72;;;1.23;;
73102;SDS011;61294;65.988;29.172;2023-06-19T12:55:13;1.35;;;1.20;;
73102;SDS011;61294;65.988;29.172;2023-06-19T12:57:39;1.67;;;1.15;;
73102;SDS011;61294;65.988;29.172;2023-06-19T13:00:07;1.40;;;1.30;;
73102;SDS011;61294;65.988;29.172;2023-06-19T13:02:35;1.35;;;1.25;;
73102;SDS011;61294;65.988;29.172;2023-06-19T13:05:01;1.30;;;1.20;;
73102;SDS011;61294;65.988;29.172;2023-06-19T13:07:27;1.27;;;1.17;;
73102;SDS011;61294;65.988;29.172;2023-06-19T13:09:53;1.52;;;1.30;;
73102;SDS011;61294;65.988;29.172;2023-06-19T13:12:21;1.42;;;1.30;;
73102;SDS011;61294;65.988;29.172;2023-06-19T13:14:48;2.08;;;1.88;;
73102;SDS011;61294;65.988;29.172;2023-06-19T13:17:13;2.50;;;1.10;;
73102;SDS011;61294;65.988;29.172;2023-06-19T13:19:39;2.08;;;1.30;;
73102;SDS011;61294;65.988;29.172;2023-06-19T13:22:05;1.85;;;1.23;;
73102;SDS011;61294;65.988;29.172;2023-06-19T13:24:31;1.30;;;1.17;;
73102;SDS011;61294;65.988;29.172;2023-06-19T13:26:57;1.40;;;1.30;;
73102;SDS011;61294;65.988;29.172;2023-06-19T13:29:23;1.40;;;1.30;;
73102;SDS011;61294;65.988;29.172;2023-06-19T13:31:49;1.40;;;1.30;;
73102;SDS011;61294;65.988;29.172;2023-06-19T13:34:15;1.20;;;1.10;;
73102;SDS011;61294;65.988;29.172;2023-06-19T13:36:41;1.10;;;1.00;;
73102;SDS011;61294;65.988;29.172;2023-06-19T13:39:07;1.55;;;1.20;;
73102;SDS011;61294;65.988;29.172;2023-06-19T13:41:33;2.08;;;1.20;;
73102;SDS011;61294;65.988;29.172;2023-06-19T13:43:59;1.30;;;1.20;;
73102;SDS011;61294;65.988;29.172;2023-06-19T13:46:26;2.35;;;1.10;;
73102;SDS011;61294;65.988;29.172;2023-06-19T13:48:52;3.08;;;2.20;;
73102;SDS011;61294;65.988;29.172;2023-06-19T13:51:19;1.20;;;1.10;;
73102;SDS011;61294;65.988;29.172;2023-06-19T13:53:45;1.40;;;1.10;;
73102;SDS011;61294;65.988;29.172;2023-06-19T13:56:12;1.75;;;1.00;;
73102;SDS011;61294;65.988;29.172;2023-06-19T13:58:38;1.60;;;1.50;;
73102;SDS011;61294;65.988;29.172;2023-06-19T14:01:04;1.83;;;1.10;;
73102;SDS011;61294;65.988;29.172;2023-06-19T14:03:31;1.25;;;1.05;;
73102;SDS011;61294;65.988;29.172;2023-06-19T14:05:57;1.85;;;1.00;;
73102;SDS011;61294;65.988;29.172;2023-06-19T14:08:23;2.75;;;1.10;;
73102;SDS011;61294;65.988;29.172;2023-06-19T14:10:49;1.30;;;1.10;;
73102;SDS011;61294;65.988;29.172;2023-06-19T14:13:15;1.58;;;1.23;;
73102;SDS011;61294;65.988;29.172;2023-06-19T14:15:42;2.10;;;1.00;;
73102;SDS011;61294;65.988;29.172;2023-06-19T14:18:07;1.10;;;1.00;;
73102;SDS011;61294;65.988;29.172;2023-06-19T14:20:33;4.60;;;4.20;;
73102;SDS011;61294;65.988;29.172;2023-06-19T14:22:59;1.38;;;1.27;;
73102;SDS011;61294;65.988;29.172;2023-06-19T14:25:25;3.00;;;1.30;;
73102;SDS011;61294;65.988;29.172;2023-06-19T14:27:51;1.80;;;1.13;;
73102;SDS011;61294;65.988;29.172;2023-06-19T14:30:17;1.17;;;1.08;;
73102;SDS011;61294;65.988;29.172;2023-06-19T14:32:43;1.98;;;1.60;;
73102;SDS011;61294;65.988;29.172;2023-06-19T14:35:09;1.20;;;1.10;;
73102;SDS011;61294;65.988;29.172;2023-06-19T14:37:35;1.30;;;1.20;;
73102;SDS011;61294;65.988;29.172;2023-06-19T14:40:02;1.20;;;1.10;;
73102;SDS011;61294;65.988;29.172;2023-06-19T14:42:28;3.72;;;2.13;;
73102;SDS011;61294;65.988;29.172;2023-06-19T14:44:54;1.50;;;1.20;;